Suederoog — ZDHC8 — position and weather

sailwx.info

Track history (hours):
 
Tides and Currents Weather Stations Pressure Air Temp Water Temp Dewpoint Dewpoint Depression Visibility Wind Speed Wind Dir Waves Ship Positions

Suederoog

Last reported at 2016-Aug-28 23:33 UTC. Time now 2016-Aug-29 01:55 UTC.
Position N 59°46' E 024°48'.

Length 161 m; draft 10 m.

Type: Ship (hazmat cat A). MMSI: 236300000.

Date/timePositionNaut miles runAvg speedWind from/ knotsBaromVisibWave heightAir tempDewpointWater temp
2016-Aug-28 23:33N 59°46' E 024°48'1111.0
2016-Aug-28 22:33N 59°44' E 024°27'1211.1
2016-Aug-28 21:26N 59°40' E 024°03'1011.0
2016-Aug-28 20:33N 59°37' E 023°45'1111.2
2016-Aug-28 19:33N 59°33' E 023°24'1211.6
2016-Aug-28 18:33N 59°29' E 023°02'1211.6
2016-Aug-28 17:33N 59°26' E 022°41'1511.6
2016-Aug-28 16:17N 59°17' E 022°17'28812.1
2016-Aug-27 16:29N 55°50' E 016°04'1617.1
2016-Aug-27 15:33N 55°42' E 015°40'1817.7
2016-Aug-27 14:33N 55°34' E 015°12'1717.5
2016-Aug-27 13:33N 55°26' E 014°45'1716.8
2016-Aug-27 12:33N 55°13' E 014°24'1716.7
2016-Aug-27 11:33N 55°01' E 014°05'1716.8
2016-Aug-27 10:33N 54°56' E 013°37'1716.9
2016-Aug-27 09:34N 54°50' E 013°10'1716.7
2016-Aug-27 08:33N 54°45' E 012°42'1616.3
2016-Aug-27 07:33N 54°36' E 012°19'1514.7
2016-Aug-27 06:33N 54°25' E 012°03'3316.6
2016-Aug-27 04:33N 54°35' E 011°09'1716.8
2016-Aug-27 03:34N 54°34' E 010°40'1413.7
2016-Aug-27 02:33N 54°29' E 010°18'9 9.1
2016-Aug-27 01:33N 54°22' E 010°08'3 2.8
2016-Aug-27 00:33N 54°22' E 010°04'6 5.4
2016-Aug-26 23:32N 54°21' E 009°54'11 5.4
2016-Aug-26 21:28N 54°16' E 009°37'6 5.6
2016-Aug-26 20:22N 54°11' E 009°30'6 6.3
2016-Aug-26 19:29N 54°09' E 009°22'6 6.3
2016-Aug-26 18:33N 54°03' E 009°18'6 5.9
2016-Aug-26 17:34N 53°58' E 009°15'6 5.6
2016-Aug-26 16:33N 53°54' E 009°09'2 1.5
2016-Aug-26 15:33N 53°53' E 009°06'9 8.5
2016-Aug-26 14:34N 53°51' E 009°20'1414.4
2016-Aug-26 13:33N 53°38' E 009°32'1111.4
2016-Aug-26 12:33N 53°33' E 009°49'5 4.4
2016-Aug-26 11:31N 53°32' E 009°57'0 0.0
2016-Aug-26 10:31N 53°32' E 009°57'0 0.0
2016-Aug-26 09:31N 53°32' E 009°57'0 0.0
2016-Aug-26 08:31N 53°32' E 009°57'0 0.0
2016-Aug-26 07:31N 53°32' E 009°57'0 0.0
2016-Aug-26 06:31N 53°32' E 009°57'0 0.0
2016-Aug-26 04:31N 53°32' E 009°57'0 0.0
2016-Aug-26 03:31N 53°32' E 009°57'0 0.0
2016-Aug-26 02:31N 53°32' E 009°57'0 0.0
2016-Aug-26 01:31N 53°32' E 009°57'0 0.0
2016-Aug-26 00:31N 53°32' E 009°57'0 0.0
2016-Aug-25 23:31N 53°32' E 009°57'0 0.0
2016-Aug-25 22:31N 53°32' E 009°57'0 0.0
2016-Aug-25 21:31N 53°32' E 009°57'0 0.0
2016-Aug-25 20:31N 53°32' E 009°57'0 0.0
2016-Aug-25 19:31N 53°32' E 009°57'0 0.0
2016-Aug-25 18:31N 53°32' E 009°57'0 0.0
2016-Aug-25 17:31N 53°32' E 009°57'0 0.0
2016-Aug-25 16:31N 53°32' E 009°57'0 0.0
2016-Aug-25 15:31N 53°32' E 009°57'0 0.0
2016-Aug-25 14:31N 53°32' E 009°57'0 0.0
2016-Aug-25 13:31N 53°32' E 009°57'1 1.2
2016-Aug-25 12:32N 53°32' E 009°55'0 0.0
2016-Aug-25 11:32N 53°32' E 009°55'0 0.0
2016-Aug-25 10:32N 53°32' E 009°55'0 0.0
2016-Aug-25 09:32N 53°32' E 009°55'0 0.0
2016-Aug-25 08:32N 53°32' E 009°55'0 0.0
2016-Aug-25 07:32N 53°32' E 009°55'0 0.0
2016-Aug-25 06:32N 53°32' E 009°55'0 0.2
2016-Aug-25 04:33N 53°32' E 009°55'8 7.5
2016-Aug-25 03:33N 53°34' E 009°42'1413.6
2016-Aug-25 02:34N 53°44' E 009°27'1514.6
2016-Aug-25 01:33N 53°53' E 009°08'1 1.3
2016-Aug-25 00:33N 53°54' E 009°10'6 6.5
2016-Aug-24 23:33N 53°59' E 009°17'7 6.8
2016-Aug-24 22:33N 54°06' E 009°20'5 4.6
2016-Aug-24 21:33N 54°10' E 009°24'6 5.9
2016-Aug-24 20:32N 54°12' E 009°33'4 4.2
2016-Aug-24 19:28N 54°16' E 009°37'3 3.2
2016-Aug-24 18:29N 54°18' E 009°42'3 3.1
2016-Aug-24 17:33N 54°20' E 009°44'6 5.4
2016-Aug-24 16:31N 54°21' E 009°54'6 5.9
2016-Aug-24 15:33N 54°22' E 010°04'3 2.6
2016-Aug-24 14:34N 54°22' E 010°08'2 2.2
2016-Aug-24 13:33N 54°23' E 010°11'1211.9
2016-Aug-24 12:33N 54°32' E 010°25'1211.7
2016-Aug-24 11:32N 54°35' E 010°45'1111.7
2016-Aug-24 10:33N 54°36' E 011°05'1211.7
2016-Aug-24 09:33N 54°32' E 011°24'1211.9
2016-Aug-24 08:33N 54°27' E 011°42'1211.5
2016-Aug-24 07:33N 54°26' E 012°02'10 9.9
2016-Aug-24 06:33N 54°33' E 012°14'2511.4
2016-Aug-24 04:24N 54°48' E 012°49'1011.8
2016-Aug-24 03:31N 54°52' E 013°06'1212.0
2016-Aug-24 02:33N 54°56' E 013°24'1211.8
2016-Aug-24 01:33N 54°60' E 013°43'1211.8
2016-Aug-24 00:33N 55°04' E 014°03'1211.6
2016-Aug-23 23:33N 55°13' E 014°16'1211.9
2016-Aug-23 22:33N 55°22' E 014°29'1211.7
2016-Aug-23 21:33N 55°29' E 014°45'1211.8
2016-Aug-23 20:33N 55°35' E 015°03'1211.6
2016-Aug-23 19:33N 55°41' E 015°21'1211.8
2016-Aug-23 18:33N 55°47' E 015°39'34014.1
2016-Aug-22 18:28N 59°38' E 023°25'1617.3
2016-Aug-22 17:33N 59°43' E 023°55'2017.2
2016-Aug-22 16:23N 59°48' E 024°34'5416.9
2016-Aug-22 13:10N 60°05' E 026°17'1016.9
2016-Aug-22 12:34N 60°14' E 026°25'1515.0
2016-Aug-22 11:34N 60°23' E 026°49'3 3.2
2016-Aug-22 10:31N 60°25' E 026°55'0 0.0
2016-Aug-22 09:31N 60°25' E 026°55'0 0.0
2016-Aug-22 08:31N 60°25' E 026°55'0 0.0
2016-Aug-22 07:31N 60°25' E 026°55'0 0.0
2016-Aug-22 06:31N 60°25' E 026°55'0 0.0
2016-Aug-22 05:31N 60°25' E 026°55'0 0.0
2016-Aug-22 04:31N 60°25' E 026°55'0 0.0
2016-Aug-22 03:31N 60°25' E 026°55'0 0.0
2016-Aug-22 02:28N 60°25' E 026°55'0 0.0
2016-Aug-22 01:31N 60°25' E 026°55'0 0.0
2016-Aug-22 00:31N 60°25' E 026°55'0 0.0
2016-Aug-21 23:31N 60°25' E 026°55'0 0.0
2016-Aug-21 22:31N 60°25' E 026°55'0 0.0
2016-Aug-21 21:31N 60°25' E 026°55'0 0.0
2016-Aug-21 20:31N 60°25' E 026°55'0 0.0
2016-Aug-21 19:31N 60°25' E 026°55'0 0.0
2016-Aug-21 18:31N 60°25' E 026°55'0 0.0
2016-Aug-21 17:31N 60°25' E 026°55'0 0.0
2016-Aug-21 16:25N 60°25' E 026°55'0 0.0
2016-Aug-21 15:31N 60°25' E 026°55'0 0.0
2016-Aug-21 14:31N 60°25' E 026°55'0 0.0
2016-Aug-21 13:31N 60°25' E 026°55'0 0.0
2016-Aug-21 12:31N 60°25' E 026°55'0 0.0
2016-Aug-21 11:31N 60°25' E 026°55'0 0.0
2016-Aug-21 10:31N 60°25' E 026°55'0 0.0
2016-Aug-21 09:31N 60°25' E 026°55'0 0.0
2016-Aug-21 08:31N 60°25' E 026°55'0 0.0
2016-Aug-21 07:31N 60°25' E 026°55'0 0.0
2016-Aug-21 06:31N 60°25' E 026°55'0 0.0
2016-Aug-21 05:31N 60°25' E 026°55'0 0.0
2016-Aug-21 04:31N 60°25' E 026°55'0 0.0
2016-Aug-21 03:31N 60°25' E 026°55'0 0.0
2016-Aug-21 02:31N 60°25' E 026°55'0 0.0
2016-Aug-21 01:31N 60°25' E 026°55'0 0.0
2016-Aug-21 00:31N 60°25' E 026°55'0 0.0
2016-Aug-20 23:31N 60°25' E 026°55'0 0.0
2016-Aug-20 22:31N 60°25' E 026°55'0 0.0
2016-Aug-20 21:31N 60°25' E 026°55'3 3.1
2016-Aug-20 20:33N 60°24' E 026°50'1615.7
2016-Aug-20 19:33N 60°14' E 026°25'1110.1
2016-Aug-20 18:30N 60°05' E 026°36'1112.1
2016-Aug-20 17:33N 59°60' E 026°56'1211.7
2016-Aug-20 16:33N 60°04' E 027°18'1212.2
2016-Aug-20 15:33N 60°11' E 027°39'1111.5
2016-Aug-20 14:33N 60°10' E 028°02'1211.8
2016-Aug-20 13:33N 60°05' E 028°24'1212.5
2016-Aug-20 12:33N 60°03' E 028°48'2017.9
2016-Aug-20 11:28N 60°02' E 029°27'11 9.5
2016-Aug-20 10:20N 59°58' E 029°47'810.3
2016-Aug-20 09:33N 59°55' E 030°03'6 5.5
2016-Aug-20 08:32N 59°52' E 030°12'0 0.0
2016-Aug-20 07:32N 59°52' E 030°12'0 0.0
2016-Aug-20 06:29N 59°52' E 030°12'0 0.0
2016-Aug-20 05:32N 59°52' E 030°12'0 0.0
2016-Aug-20 04:32N 59°52' E 030°12'0 0.0
2016-Aug-20 03:29N 59°52' E 030°12'0 0.0
2016-Aug-20 02:32N 59°52' E 030°12'0 0.0
2016-Aug-20 01:32N 59°52' E 030°12'0 0.0
2016-Aug-20 00:32N 59°52' E 030°12'0 0.0
2016-Aug-19 23:32N 59°52' E 030°12'0 0.0
2016-Aug-19 22:32N 59°52' E 030°12'0 0.0
2016-Aug-19 21:32N 59°52' E 030°12'0 0.0
2016-Aug-19 20:32N 59°52' E 030°12'1 0.6
2016-Aug-19 19:33N 59°53' E 030°12'0 0.0
2016-Aug-19 18:31N 59°53' E 030°12'0 0.0
2016-Aug-19 17:31N 59°53' E 030°12'0 0.0
2016-Aug-19 16:31N 59°53' E 030°12'0 0.0
2016-Aug-19 15:31N 59°53' E 030°12'0 0.0
2016-Aug-19 14:31N 59°53' E 030°12'0 0.0
2016-Aug-19 13:31N 59°53' E 030°12'0 0.0
2016-Aug-19 12:31N 59°53' E 030°12'0 0.0
2016-Aug-19 11:31N 59°53' E 030°12'0 0.0
2016-Aug-19 10:31N 59°53' E 030°12'0 0.0
2016-Aug-19 09:25N 59°53' E 030°12'0 0.0
2016-Aug-19 08:31N 59°53' E 030°12'0 0.0
2016-Aug-19 07:33N 59°53' E 030°12'0 0.0
2016-Aug-19 06:33N 59°53' E 030°12'0 0.0
2016-Aug-19 05:33N 59°53' E 030°12'0 0.0
2016-Aug-19 04:33N 59°53' E 030°12'1 0.6
2016-Aug-19 03:33N 59°53' E 030°11'9 9.3
2016-Aug-19 02:33N 59°57' E 029°53'10 9.8
2016-Aug-19 01:29N 60°01' E 029°34'  
Track history (hours):
 
Tides and Currents Weather Stations Pressure Air Temp Water Temp Dewpoint Dewpoint Depression Visibility Wind Speed Wind Dir Waves Ship Positions

Suederoog

Last reported at 2016-Aug-28 23:33 UTC. Time now 2016-Aug-29 01:55 UTC.
Position N 59°46' E 024°48'.

Length 161 m; draft 10 m.

Type: Ship (hazmat cat A). MMSI: 236300000.

Date/timePositionNaut miles runAvg speedWind from/ knotsBaromVisibWave heightAir tempDewpointWater temp
2016-Aug-28 23:33N 59°46' E 024°48'1111.0
2016-Aug-28 22:33N 59°44' E 024°27'1211.1
2016-Aug-28 21:26N 59°40' E 024°03'1011.0
2016-Aug-28 20:33N 59°37' E 023°45'1111.2
2016-Aug-28 19:33N 59°33' E 023°24'1211.6
2016-Aug-28 18:33N 59°29' E 023°02'1211.6
2016-Aug-28 17:33N 59°26' E 022°41'1511.6
2016-Aug-28 16:17N 59°17' E 022°17'28812.1
2016-Aug-27 16:29N 55°50' E 016°04'1617.1
2016-Aug-27 15:33N 55°42' E 015°40'1817.7
2016-Aug-27 14:33N 55°34' E 015°12'1717.5
2016-Aug-27 13:33N 55°26' E 014°45'1716.8
2016-Aug-27 12:33N 55°13' E 014°24'1716.7
2016-Aug-27 11:33N 55°01' E 014°05'1716.8
2016-Aug-27 10:33N 54°56' E 013°37'1716.9
2016-Aug-27 09:34N 54°50' E 013°10'1716.7
2016-Aug-27 08:33N 54°45' E 012°42'1616.3
2016-Aug-27 07:33N 54°36' E 012°19'1514.7
2016-Aug-27 06:33N 54°25' E 012°03'3316.6
2016-Aug-27 04:33N 54°35' E 011°09'1716.8
2016-Aug-27 03:34N 54°34' E 010°40'1413.7
2016-Aug-27 02:33N 54°29' E 010°18'9 9.1
2016-Aug-27 01:33N 54°22' E 010°08'3 2.8
2016-Aug-27 00:33N 54°22' E 010°04'6 5.4
2016-Aug-26 23:32N 54°21' E 009°54'11 5.4
2016-Aug-26 21:28N 54°16' E 009°37'6 5.6
2016-Aug-26 20:22N 54°11' E 009°30'6 6.3
2016-Aug-26 19:29N 54°09' E 009°22'6 6.3
2016-Aug-26 18:33N 54°03' E 009°18'6 5.9
2016-Aug-26 17:34N 53°58' E 009°15'6 5.6
2016-Aug-26 16:33N 53°54' E 009°09'2 1.5
2016-Aug-26 15:33N 53°53' E 009°06'9 8.5
2016-Aug-26 14:34N 53°51' E 009°20'1414.4
2016-Aug-26 13:33N 53°38' E 009°32'1111.4
2016-Aug-26 12:33N 53°33' E 009°49'5 4.4
2016-Aug-26 11:31N 53°32' E 009°57'0 0.0
2016-Aug-26 10:31N 53°32' E 009°57'0 0.0
2016-Aug-26 09:31N 53°32' E 009°57'0 0.0
2016-Aug-26 08:31N 53°32' E 009°57'0 0.0
2016-Aug-26 07:31N 53°32' E 009°57'0 0.0
2016-Aug-26 06:31N 53°32' E 009°57'0 0.0
2016-Aug-26 04:31N 53°32' E 009°57'0 0.0
2016-Aug-26 03:31N 53°32' E 009°57'0 0.0
2016-Aug-26 02:31N 53°32' E 009°57'0 0.0
2016-Aug-26 01:31N 53°32' E 009°57'0 0.0
2016-Aug-26 00:31N 53°32' E 009°57'0 0.0
2016-Aug-25 23:31N 53°32' E 009°57'0 0.0
2016-Aug-25 22:31N 53°32' E 009°57'0 0.0
2016-Aug-25 21:31N 53°32' E 009°57'0 0.0
2016-Aug-25 20:31N 53°32' E 009°57'0 0.0
2016-Aug-25 19:31N 53°32' E 009°57'0 0.0
2016-Aug-25 18:31N 53°32' E 009°57'0 0.0
2016-Aug-25 17:31N 53°32' E 009°57'0 0.0
2016-Aug-25 16:31N 53°32' E 009°57'0 0.0
2016-Aug-25 15:31N 53°32' E 009°57'0 0.0
2016-Aug-25 14:31N 53°32' E 009°57'0 0.0
2016-Aug-25 13:31N 53°32' E 009°57'1 1.2
2016-Aug-25 12:32N 53°32' E 009°55'0 0.0
2016-Aug-25 11:32N 53°32' E 009°55'0 0.0
2016-Aug-25 10:32N 53°32' E 009°55'0 0.0
2016-Aug-25 09:32N 53°32' E 009°55'0 0.0
2016-Aug-25 08:32N 53°32' E 009°55'0 0.0
2016-Aug-25 07:32N 53°32' E 009°55'0 0.0
2016-Aug-25 06:32N 53°32' E 009°55'0 0.2
2016-Aug-25 04:33N 53°32' E 009°55'8 7.5
2016-Aug-25 03:33N 53°34' E 009°42'1413.6
2016-Aug-25 02:34N 53°44' E 009°27'1514.6
2016-Aug-25 01:33N 53°53' E 009°08'1 1.3
2016-Aug-25 00:33N 53°54' E 009°10'6 6.5
2016-Aug-24 23:33N 53°59' E 009°17'7 6.8
2016-Aug-24 22:33N 54°06' E 009°20'5 4.6
2016-Aug-24 21:33N 54°10' E 009°24'6 5.9
2016-Aug-24 20:32N 54°12' E 009°33'4 4.2
2016-Aug-24 19:28N 54°16' E 009°37'3 3.2
2016-Aug-24 18:29N 54°18' E 009°42'3 3.1
2016-Aug-24 17:33N 54°20' E 009°44'6 5.4
2016-Aug-24 16:31N 54°21' E 009°54'6 5.9
2016-Aug-24 15:33N 54°22' E 010°04'3 2.6
2016-Aug-24 14:34N 54°22' E 010°08'2 2.2
2016-Aug-24 13:33N 54°23' E 010°11'1211.9
2016-Aug-24 12:33N 54°32' E 010°25'1211.7
2016-Aug-24 11:32N 54°35' E 010°45'1111.7
2016-Aug-24 10:33N 54°36' E 011°05'1211.7
2016-Aug-24 09:33N 54°32' E 011°24'1211.9
2016-Aug-24 08:33N 54°27' E 011°42'1211.5
2016-Aug-24 07:33N 54°26' E 012°02'10 9.9
2016-Aug-24 06:33N 54°33' E 012°14'2511.4
2016-Aug-24 04:24N 54°48' E 012°49'1011.8
2016-Aug-24 03:31N 54°52' E 013°06'1212.0
2016-Aug-24 02:33N 54°56' E 013°24'1211.8
2016-Aug-24 01:33N 54°60' E 013°43'1211.8
2016-Aug-24 00:33N 55°04' E 014°03'1211.6
2016-Aug-23 23:33N 55°13' E 014°16'1211.9
2016-Aug-23 22:33N 55°22' E 014°29'1211.7
2016-Aug-23 21:33N 55°29' E 014°45'1211.8
2016-Aug-23 20:33N 55°35' E 015°03'1211.6
2016-Aug-23 19:33N 55°41' E 015°21'1211.8
2016-Aug-23 18:33N 55°47' E 015°39'34014.1
2016-Aug-22 18:28N 59°38' E 023°25'1617.3
2016-Aug-22 17:33N 59°43' E 023°55'2017.2
2016-Aug-22 16:23N 59°48' E 024°34'5416.9
2016-Aug-22 13:10N 60°05' E 026°17'1016.9
2016-Aug-22 12:34N 60°14' E 026°25'1515.0
2016-Aug-22 11:34N 60°23' E 026°49'3 3.2
2016-Aug-22 10:31N 60°25' E 026°55'0 0.0
2016-Aug-22 09:31N 60°25' E 026°55'0 0.0
2016-Aug-22 08:31N 60°25' E 026°55'0 0.0
2016-Aug-22 07:31N 60°25' E 026°55'0 0.0
2016-Aug-22 06:31N 60°25' E 026°55'0 0.0
2016-Aug-22 05:31N 60°25' E 026°55'0 0.0
2016-Aug-22 04:31N 60°25' E 026°55'0 0.0
2016-Aug-22 03:31N 60°25' E 026°55'0 0.0
2016-Aug-22 02:28N 60°25' E 026°55'0 0.0
2016-Aug-22 01:31N 60°25' E 026°55'0 0.0
2016-Aug-22 00:31N 60°25' E 026°55'0 0.0
2016-Aug-21 23:31N 60°25' E 026°55'0 0.0
2016-Aug-21 22:31N 60°25' E 026°55'0 0.0
2016-Aug-21 21:31N 60°25' E 026°55'0 0.0
2016-Aug-21 20:31N 60°25' E 026°55'0 0.0
2016-Aug-21 19:31N 60°25' E 026°55'0 0.0
2016-Aug-21 18:31N 60°25' E 026°55'0 0.0
2016-Aug-21 17:31N 60°25' E 026°55'0 0.0
2016-Aug-21 16:25N 60°25' E 026°55'0 0.0
2016-Aug-21 15:31N 60°25' E 026°55'0 0.0
2016-Aug-21 14:31N 60°25' E 026°55'0 0.0
2016-Aug-21 13:31N 60°25' E 026°55'0 0.0
2016-Aug-21 12:31N 60°25' E 026°55'0 0.0
2016-Aug-21 11:31N 60°25' E 026°55'0 0.0
2016-Aug-21 10:31N 60°25' E 026°55'0 0.0
2016-Aug-21 09:31N 60°25' E 026°55'0 0.0
2016-Aug-21 08:31N 60°25' E 026°55'0 0.0
2016-Aug-21 07:31N 60°25' E 026°55'0 0.0
2016-Aug-21 06:31N 60°25' E 026°55'0 0.0
2016-Aug-21 05:31N 60°25' E 026°55'0 0.0
2016-Aug-21 04:31N 60°25' E 026°55'0 0.0
2016-Aug-21 03:31N 60°25' E 026°55'0 0.0
2016-Aug-21 02:31N 60°25' E 026°55'0 0.0
2016-Aug-21 01:31N 60°25' E 026°55'0 0.0
2016-Aug-21 00:31N 60°25' E 026°55'0 0.0
2016-Aug-20 23:31N 60°25' E 026°55'0 0.0
2016-Aug-20 22:31N 60°25' E 026°55'0 0.0
2016-Aug-20 21:31N 60°25' E 026°55'3 3.1
2016-Aug-20 20:33N 60°24' E 026°50'1615.7
2016-Aug-20 19:33N 60°14' E 026°25'1110.1
2016-Aug-20 18:30N 60°05' E 026°36'1112.1
2016-Aug-20 17:33N 59°60' E 026°56'1211.7
2016-Aug-20 16:33N 60°04' E 027°18'1212.2
2016-Aug-20 15:33N 60°11' E 027°39'1111.5
2016-Aug-20 14:33N 60°10' E 028°02'1211.8
2016-Aug-20 13:33N 60°05' E 028°24'1212.5
2016-Aug-20 12:33N 60°03' E 028°48'2017.9
2016-Aug-20 11:28N 60°02' E 029°27'11 9.5
2016-Aug-20 10:20N 59°58' E 029°47'810.3
2016-Aug-20 09:33N 59°55' E 030°03'6 5.5
2016-Aug-20 08:32N 59°52' E 030°12'0 0.0
2016-Aug-20 07:32N 59°52' E 030°12'0 0.0
2016-Aug-20 06:29N 59°52' E 030°12'0 0.0
2016-Aug-20 05:32N 59°52' E 030°12'0 0.0
2016-Aug-20 04:32N 59°52' E 030°12'0 0.0
2016-Aug-20 03:29N 59°52' E 030°12'0 0.0
2016-Aug-20 02:32N 59°52' E 030°12'0 0.0
2016-Aug-20 01:32N 59°52' E 030°12'0 0.0
2016-Aug-20 00:32N 59°52' E 030°12'0 0.0
2016-Aug-19 23:32N 59°52' E 030°12'0 0.0
2016-Aug-19 22:32N 59°52' E 030°12'0 0.0
2016-Aug-19 21:32N 59°52' E 030°12'0 0.0
2016-Aug-19 20:32N 59°52' E 030°12'1 0.6
2016-Aug-19 19:33N 59°53' E 030°12'0 0.0
2016-Aug-19 18:31N 59°53' E 030°12'0 0.0
2016-Aug-19 17:31N 59°53' E 030°12'0 0.0
2016-Aug-19 16:31N 59°53' E 030°12'0 0.0
2016-Aug-19 15:31N 59°53' E 030°12'0 0.0
2016-Aug-19 14:31N 59°53' E 030°12'0 0.0
2016-Aug-19 13:31N 59°53' E 030°12'0 0.0
2016-Aug-19 12:31N 59°53' E 030°12'0 0.0
2016-Aug-19 11:31N 59°53' E 030°12'0 0.0
2016-Aug-19 10:31N 59°53' E 030°12'0 0.0
2016-Aug-19 09:25N 59°53' E 030°12'0 0.0
2016-Aug-19 08:31N 59°53' E 030°12'0 0.0
2016-Aug-19 07:33N 59°53' E 030°12'0 0.0
2016-Aug-19 06:33N 59°53' E 030°12'0 0.0
2016-Aug-19 05:33N 59°53' E 030°12'0 0.0
2016-Aug-19 04:33N 59°53' E 030°12'1 0.6
2016-Aug-19 03:33N 59°53' E 030°11'9 9.3
2016-Aug-19 02:33N 59°57' E 029°53'10 9.8
2016-Aug-19 01:29N 60°01' E 029°34'  

Dump ship's entire track history